createdAt,value
2022-12-31T00:00:07.997Z,98911.84
2022-12-31T00:02:35.282Z,98916.59
2022-12-31T00:05:02.268Z,98920.53
2022-12-31T00:07:28.990Z,98917.22
2022-12-31T00:09:55.719Z,98916.03
2022-12-31T00:12:22.509Z,98912.91
2022-12-31T00:14:49.696Z,98914.75
2022-12-31T00:17:16.365Z,98902.19
2022-12-31T00:19:43.887Z,98904.00
2022-12-31T00:22:10.724Z,98898.50
2022-12-31T00:24:37.359Z,98909.75
2022-12-31T00:27:04.112Z,98910.78
2022-12-31T00:29:30.891Z,98898.09
2022-12-31T00:31:57.517Z,98912.22
2022-12-31T00:34:24.292Z,98912.34
2022-12-31T00:36:50.995Z,98926.34
2022-12-31T00:39:17.685Z,98941.38
2022-12-31T00:41:44.424Z,98956.78
2022-12-31T00:44:14.581Z,98971.84
2022-12-31T00:49:07.173Z,99002.63
2022-12-31T00:51:33.874Z,99033.38
2022-12-31T00:54:01.047Z,99042.75
2022-12-31T00:56:31.630Z,99034.06
2022-12-31T00:58:59.575Z,99054.63
2022-12-31T01:01:29.474Z,99070.63
2022-12-31T01:04:00.369Z,99068.44
2022-12-31T01:06:27.212Z,99076.59
2022-12-31T01:08:55.768Z,99083.66
2022-12-31T01:11:23.375Z,99086.69
2022-12-31T01:13:56.996Z,99089.25
2022-12-31T01:16:26.634Z,99113.09
2022-12-31T01:18:53.949Z,99100.78
2022-12-31T01:21:21.841Z,99110.72
2022-12-31T01:23:48.950Z,99117.69
2022-12-31T01:26:17.240Z,99107.44
2022-12-31T01:28:44.126Z,99124.31
2022-12-31T01:31:13.144Z,99123.66
2022-12-31T01:33:41.801Z,99117.91
2022-12-31T01:36:11.899Z,99119.22
2022-12-31T01:38:39.049Z,99114.94
2022-12-31T01:41:06.148Z,99114.53
2022-12-31T01:43:46.726Z,99130.75
2022-12-31T01:46:19.611Z,99119.63
2022-12-31T01:48:49.013Z,99113.38
2022-12-31T01:51:15.823Z,99129.38
2022-12-31T01:53:43.218Z,99117.44
2022-12-31T01:56:10.123Z,99110.34
2022-12-31T01:58:49.024Z,99113.19
2022-12-31T02:01:21.992Z,99119.06
2022-12-31T02:03:48.835Z,99124.28
2022-12-31T02:06:21.965Z,99124.53
2022-12-31T02:08:48.989Z,99117.91
2022-12-31T02:11:24.937Z,99112.16
2022-12-31T02:13:58.144Z,99111.31
2022-12-31T02:16:34.393Z,99111.59
2022-12-31T02:19:38.744Z,99132.47
2022-12-31T02:22:46.563Z,99148.31
2022-12-31T02:25:41.272Z,99147.16
2022-12-31T02:28:10.667Z,99143.88
2022-12-31T02:30:37.683Z,99138.75
2022-12-31T02:33:23.175Z,99139.22
2022-12-31T02:35:54.639Z,99149.84
2022-12-31T02:38:25.988Z,99137.81
2022-12-31T02:40:56.549Z,99135.13
2022-12-31T02:43:24.107Z,99137.38
2022-12-31T02:46:04.503Z,99136.13
2022-12-31T02:48:46.131Z,99139.38
2022-12-31T02:51:21.526Z,99145.59
2022-12-31T02:54:00.331Z,99150.72
2022-12-31T02:56:36.011Z,99173.69
2022-12-31T02:59:25.758Z,99176.03
2022-12-31T03:02:14.005Z,99175.41
2022-12-31T03:04:43.494Z,99213.44
2022-12-31T03:07:13.171Z,99243.41
2022-12-31T03:09:40.412Z,99246.75
2022-12-31T03:12:27.774Z,99275.56
2022-12-31T03:14:54.445Z,99289.94
2022-12-31T03:17:21.626Z,99307.41
2022-12-31T03:20:06.949Z,99322.56
2022-12-31T03:22:36.422Z,99327.34
2022-12-31T03:25:35.110Z,99353.69
2022-12-31T03:28:03.627Z,99383.75
2022-12-31T03:30:31.876Z,99374.91
2022-12-31T03:32:59.286Z,99390.53
2022-12-31T03:35:27.985Z,99431.81
2022-12-31T03:37:55.002Z,99363.72
2022-12-31T03:40:23.081Z,99379.94
2022-12-31T03:42:50.816Z,99400.81
2022-12-31T03:45:18.253Z,99371.97
2022-12-31T03:47:45.069Z,99375.63
2022-12-31T03:50:13.933Z,99387.16
2022-12-31T03:52:40.921Z,99402.69
2022-12-31T03:55:08.776Z,99384.97
2022-12-31T03:57:35.685Z,99401.16
2022-12-31T04:00:03.102Z,99388.22
2022-12-31T04:02:31.520Z,99395.09
2022-12-31T04:04:58.213Z,99393.13
2022-12-31T04:07:24.980Z,99388.00
2022-12-31T04:09:51.685Z,99416.91
2022-12-31T04:12:18.479Z,99439.63
2022-12-31T04:14:45.164Z,99459.13
2022-12-31T04:17:11.969Z,99473.72
2022-12-31T04:19:38.672Z,99463.31
2022-12-31T04:22:05.906Z,99473.72
2022-12-31T04:24:32.657Z,99477.56
2022-12-31T04:27:03.747Z,99471.75
2022-12-31T04:29:34.536Z,99467.06
2022-12-31T04:32:01.457Z,99457.63
2022-12-31T04:34:28.222Z,99454.81
2022-12-31T04:36:54.987Z,99437.63
2022-12-31T04:39:21.716Z,99443.31
2022-12-31T04:41:49.583Z,99459.28
2022-12-31T04:44:16.589Z,99453.56
2022-12-31T04:46:43.481Z,99469.63
2022-12-31T04:49:10.294Z,99473.22
2022-12-31T04:51:37.356Z,99464.53
2022-12-31T04:54:04.524Z,99466.88
2022-12-31T04:56:32.241Z,99465.09
2022-12-31T04:58:59.238Z,99480.53
2022-12-31T05:01:26.751Z,99507.69
2022-12-31T05:03:53.683Z,99504.53
2022-12-31T05:06:22.776Z,99541.94
2022-12-31T05:08:49.794Z,99541.50
2022-12-31T05:11:17.478Z,99579.72
2022-12-31T05:13:44.786Z,99583.59
2022-12-31T05:16:11.641Z,99578.22
2022-12-31T05:18:38.533Z,99576.81
2022-12-31T05:21:07.991Z,99570.50
2022-12-31T05:23:34.826Z,99566.09
2022-12-31T05:26:01.998Z,99557.00
2022-12-31T05:28:28.771Z,99555.34
2022-12-31T05:30:55.698Z,99570.63
2022-12-31T05:33:23.087Z,99571.97
2022-12-31T05:35:50.107Z,99557.75
2022-12-31T05:38:16.813Z,99565.03
2022-12-31T05:40:45.568Z,99560.06
2022-12-31T05:43:13.655Z,99556.19
2022-12-31T05:45:40.392Z,99546.16
2022-12-31T05:48:09.392Z,99552.72
2022-12-31T05:50:36.043Z,99578.69
2022-12-31T05:53:04.083Z,99588.44
2022-12-31T05:55:30.789Z,99594.69
2022-12-31T05:57:57.637Z,99596.84
2022-12-31T06:00:24.385Z,99585.16
2022-12-31T06:02:51.183Z,99587.63
2022-12-31T06:05:24.159Z,99592.03
2022-12-31T06:07:52.682Z,99598.03
2022-12-31T06:10:19.287Z,99587.63
2022-12-31T06:12:46.157Z,99583.31
2022-12-31T06:15:12.920Z,99577.94
2022-12-31T06:17:39.641Z,99580.00
2022-12-31T06:20:12.368Z,99575.31
2022-12-31T06:22:39.889Z,99569.72
2022-12-31T06:25:07.012Z,99570.41
2022-12-31T06:27:33.632Z,99568.31
2022-12-31T06:30:00.382Z,99561.84
2022-12-31T06:32:27.113Z,99585.69
2022-12-31T06:34:53.891Z,100085.09
2022-12-31T06:37:20.632Z,100099.53
2022-12-31T06:39:47.296Z,100090.88
2022-12-31T06:42:14.477Z,100121.16
2022-12-31T06:44:41.196Z,100149.63
2022-12-31T06:47:07.937Z,100161.59
2022-12-31T06:49:34.646Z,100166.97
2022-12-31T06:52:01.366Z,100191.53
2022-12-31T06:54:28.054Z,100190.91
2022-12-31T06:56:55.206Z,100193.78
2022-12-31T06:59:29.703Z,100156.91
2022-12-31T07:02:24.373Z,100195.28
2022-12-31T07:05:14.570Z,100216.50
2022-12-31T07:07:47.261Z,100216.69
2022-12-31T07:10:22.781Z,100223.72
2022-12-31T07:13:24.649Z,100252.56
2022-12-31T07:16:30.792Z,100249.66
2022-12-31T07:19:25.047Z,100270.50
2022-12-31T07:21:53.455Z,100280.41
2022-12-31T07:24:20.564Z,100286.16
2022-12-31T07:26:55.957Z,100287.41
2022-12-31T07:29:54.584Z,100291.31
2022-12-31T07:32:27.539Z,100285.16
2022-12-31T07:35:01.413Z,100310.75
2022-12-31T07:37:49.561Z,100311.56
2022-12-31T07:40:56.791Z,100228.41
2022-12-31T07:43:29.106Z,100306.81
2022-12-31T07:45:59.208Z,100326.19
2022-12-31T07:48:27.911Z,100320.63
2022-12-31T07:50:56.481Z,100336.31
2022-12-31T07:53:24.196Z,100349.31
2022-12-31T07:55:55.512Z,100347.44
2022-12-31T07:58:27.481Z,100366.22
2022-12-31T08:00:56.072Z,100378.19
2022-12-31T08:03:25.707Z,100385.19
2022-12-31T08:06:10.907Z,100394.91
2022-12-31T08:08:51.357Z,100391.81
2022-12-31T08:11:36.261Z,100398.22
2022-12-31T08:14:03.564Z,100395.13
2022-12-31T08:16:31.986Z,100399.84
2022-12-31T08:18:59.035Z,100393.25
2022-12-31T08:21:54.400Z,100399.44
2022-12-31T08:24:26.978Z,100392.66
2022-12-31T08:27:42.097Z,100381.25
2022-12-31T08:30:16.903Z,100394.69
2022-12-31T08:32:52.799Z,100388.91
2022-12-31T08:35:28.519Z,100383.75
2022-12-31T08:38:04.306Z,100377.78
2022-12-31T08:40:47.966Z,100382.72
2022-12-31T08:43:20.415Z,100389.13
2022-12-31T08:45:52.747Z,100385.41
2022-12-31T08:48:19.414Z,100389.72
2022-12-31T08:50:46.385Z,100382.47
2022-12-31T08:53:13.284Z,100401.84
2022-12-31T08:55:42.029Z,100400.81
2022-12-31T08:58:25.338Z,100419.50
2022-12-31T09:00:54.817Z,100407.53
2022-12-31T09:03:30.417Z,100414.50
2022-12-31T09:06:11.290Z,100443.41
2022-12-31T09:09:12.345Z,100433.72
2022-12-31T09:11:51.148Z,100431.41
2022-12-31T09:14:21.661Z,100447.31
2022-12-31T09:17:19.423Z,100458.41
2022-12-31T09:19:46.288Z,100462.03
2022-12-31T09:22:13.100Z,100458.22
2022-12-31T09:24:40.071Z,100472.81
2022-12-31T09:27:27.745Z,100493.09
2022-12-31T09:30:08.480Z,100479.34
2022-12-31T09:32:41.557Z,100507.47
2022-12-31T09:35:33.266Z,100510.03
2022-12-31T09:38:23.040Z,100491.72
2022-12-31T09:41:15.727Z,100515.38
2022-12-31T09:43:58.957Z,100496.13
2022-12-31T09:46:39.782Z,100483.56
2022-12-31T09:49:27.864Z,100471.59
2022-12-31T09:51:54.533Z,100442.44
2022-12-31T09:54:33.366Z,100426.06
2022-12-31T09:57:14.952Z,100388.09
2022-12-31T10:00:00.244Z,100334.94
2022-12-31T10:02:30.130Z,100282.75
2022-12-31T10:05:22.283Z,100227.00
2022-12-31T10:07:54.640Z,100179.72
2022-12-31T10:10:31.023Z,100112.25
2022-12-31T10:13:09.122Z,100045.59
2022-12-31T10:15:57.613Z,100017.28
2022-12-31T10:18:44.832Z,99944.31
2022-12-31T10:21:51.845Z,99866.50
2022-12-31T10:24:33.780Z,99826.22
2022-12-31T10:27:09.602Z,99809.94
2022-12-31T10:29:47.404Z,99766.97
2022-12-31T10:32:17.004Z,99771.00
2022-12-31T10:35:02.555Z,99730.09
2022-12-31T10:37:41.800Z,99726.78
2022-12-31T10:40:24.018Z,99724.25
2022-12-31T10:42:59.732Z,99705.72
2022-12-31T10:45:51.204Z,99708.19
2022-12-31T10:48:56.570Z,99657.66
2022-12-31T10:51:45.098Z,99619.19
2022-12-31T10:54:42.304Z,99656.75
2022-12-31T10:57:57.393Z,99661.97
2022-12-31T11:00:30.564Z,99663.22
2022-12-31T11:03:36.837Z,99706.13
2022-12-31T11:06:22.283Z,99727.78
2022-12-31T11:09:18.375Z,99766.81
2022-12-31T11:11:58.929Z,99795.50
2022-12-31T11:14:48.848Z,99798.94
2022-12-31T11:17:24.681Z,99824.06
2022-12-31T11:20:19.322Z,99847.13
2022-12-31T11:22:45.946Z,99862.47
2022-12-31T11:25:13.018Z,99867.72
2022-12-31T11:28:07.532Z,99875.72
2022-12-31T11:31:32.948Z,99899.38
2022-12-31T11:34:11.733Z,99894.88
2022-12-31T11:36:53.307Z,99868.38
2022-12-31T11:39:51.859Z,99854.94
2022-12-31T11:42:56.941Z,99840.78
2022-12-31T11:45:53.947Z,99819.81
2022-12-31T11:48:50.661Z,99807.94
2022-12-31T11:51:49.990Z,99795.72
2022-12-31T11:54:40.178Z,99779.47
2022-12-31T11:57:27.724Z,99780.03
2022-12-31T11:59:58.284Z,99767.53
2022-12-31T12:02:28.230Z,99754.97
2022-12-31T12:04:58.556Z,99727.94
2022-12-31T12:07:26.041Z,99713.47
2022-12-31T12:09:58.110Z,99695.06
2022-12-31T12:12:24.969Z,99682.84
2022-12-31T12:14:53.747Z,99656.50
2022-12-31T12:17:32.385Z,99646.50
2022-12-31T12:20:16.442Z,99624.69
2022-12-31T12:22:54.434Z,99610.13
2022-12-31T12:25:23.949Z,99577.47
2022-12-31T12:27:50.646Z,99572.06
2022-12-31T12:30:21.989Z,99553.66
2022-12-31T12:32:54.052Z,99534.44
2022-12-31T12:35:31.949Z,99501.72
2022-12-31T12:38:17.320Z,99507.75
2022-12-31T12:41:00.999Z,99470.06
2022-12-31T12:43:30.646Z,99428.56
2022-12-31T12:46:16.962Z,99420.06
2022-12-31T12:48:46.781Z,99381.38
2022-12-31T12:51:47.930Z,99334.97
2022-12-31T12:54:29.679Z,99307.66
2022-12-31T12:57:28.814Z,99198.84
2022-12-31T13:00:15.897Z,99194.25
2022-12-31T13:02:48.868Z,99194.50
2022-12-31T13:05:38.439Z,99181.06
2022-12-31T13:08:43.721Z,99190.25
2022-12-31T13:11:16.004Z,99167.84
2022-12-31T13:13:46.618Z,99177.28
2022-12-31T13:16:22.590Z,99172.66
2022-12-31T13:19:14.296Z,99204.03
2022-12-31T13:22:03.292Z,99154.31
2022-12-31T13:24:39.064Z,99181.06
2022-12-31T13:27:14.016Z,99176.72
2022-12-31T13:29:42.592Z,99173.22
2022-12-31T13:32:12.975Z,99185.03
2022-12-31T13:34:44.806Z,99172.13
2022-12-31T13:37:40.800Z,99179.44
2022-12-31T13:40:28.314Z,99182.16
2022-12-31T13:42:58.447Z,99187.03
2022-12-31T13:45:29.177Z,99221.09
2022-12-31T13:48:01.363Z,99197.03
2022-12-31T13:50:37.178Z,99214.59
2022-12-31T13:53:23.039Z,99197.03
2022-12-31T13:55:57.932Z,99193.78
2022-12-31T13:58:36.039Z,99205.66
2022-12-31T14:01:28.233Z,99212.16
2022-12-31T14:04:23.820Z,99214.31
2022-12-31T14:06:56.779Z,99212.06
2022-12-31T14:09:26.639Z,99217.22
2022-12-31T14:11:53.375Z,99224.44
2022-12-31T14:14:35.311Z,99222.28
2022-12-31T14:17:27.135Z,99226.09
2022-12-31T14:20:03.035Z,99206.81
2022-12-31T14:22:48.183Z,99215.34
2022-12-31T14:25:27.616Z,99211.19
2022-12-31T14:27:56.715Z,99227.25
2022-12-31T14:30:27.071Z,99242.31
2022-12-31T14:33:41.542Z,99251.97
2022-12-31T14:36:18.167Z,99261.25
2022-12-31T14:39:01.435Z,99260.91
2022-12-31T14:41:38.646Z,99274.22
2022-12-31T14:44:18.715Z,99257.75
2022-12-31T14:46:53.638Z,99260.66
2022-12-31T14:49:41.978Z,99255.84
2022-12-31T14:52:24.208Z,99280.16
2022-12-31T14:55:03.548Z,99249.69
2022-12-31T14:58:17.174Z,99254.22
2022-12-31T15:00:38.326Z,99281.53
2022-12-31T15:03:18.171Z,99272.59
2022-12-31T15:06:22.995Z,99273.66
2022-12-31T15:09:08.165Z,99272.63
2022-12-31T15:11:38.357Z,99300.31
2022-12-31T15:14:37.577Z,99300.00
2022-12-31T15:17:31.332Z,99301.53
2022-12-31T15:20:32.694Z,99284.59
2022-12-31T15:22:59.524Z,99278.91
2022-12-31T15:25:40.527Z,99280.38
2022-12-31T15:28:23.197Z,99268.25
2022-12-31T15:30:50.383Z,99272.34
2022-12-31T15:33:21.999Z,99265.72
2022-12-31T15:35:51.623Z,99274.28
2022-12-31T15:38:30.352Z,99284.53
2022-12-31T15:40:57.392Z,99297.50
2022-12-31T15:43:23.938Z,99297.81
2022-12-31T15:45:54.213Z,99305.25
2022-12-31T15:48:44.609Z,99314.44
2022-12-31T15:51:23.407Z,99305.19
2022-12-31T15:53:53.127Z,99285.00
2022-12-31T15:56:27.916Z,99305.16
2022-12-31T15:58:57.946Z,99311.38
2022-12-31T16:01:30.095Z,99305.06
2022-12-31T16:04:00.217Z,99312.88
2022-12-31T16:06:29.504Z,99312.00
2022-12-31T16:08:56.277Z,99315.72
2022-12-31T16:11:24.664Z,99310.38
2022-12-31T16:13:54.031Z,99305.28
2022-12-31T16:16:27.955Z,99308.09
2022-12-31T16:18:55.238Z,99323.69
2022-12-31T16:21:35.241Z,99317.66
2022-12-31T16:24:26.590Z,99303.72
2022-12-31T16:26:55.243Z,99314.31
2022-12-31T16:29:23.320Z,99326.81
2022-12-31T16:31:51.526Z,99323.78
2022-12-31T16:34:22.236Z,99344.50
2022-12-31T16:37:06.246Z,99326.81
2022-12-31T16:39:34.223Z,99332.81
2022-12-31T16:42:10.035Z,99320.53
2022-12-31T16:44:36.728Z,99337.78
2022-12-31T16:47:03.998Z,99329.59
2022-12-31T16:49:32.242Z,99329.47
2022-12-31T16:52:03.508Z,99323.03
2022-12-31T16:54:38.492Z,99333.31
2022-12-31T16:57:06.443Z,99339.72
2022-12-31T16:59:41.635Z,99349.44
2022-12-31T17:02:23.422Z,99337.19
2022-12-31T17:04:56.152Z,99323.94
2022-12-31T17:07:32.425Z,99317.91
2022-12-31T17:10:09.158Z,99320.31
2022-12-31T17:13:25.021Z,99314.00
2022-12-31T17:15:40.638Z,99306.56
2022-12-31T17:18:07.840Z,99312.75
2022-12-31T17:20:34.747Z,99301.56
2022-12-31T17:23:04.589Z,99305.13
2022-12-31T17:25:33.166Z,99310.13
2022-12-31T17:28:04.070Z,99312.16
2022-12-31T17:30:32.594Z,99309.09
2022-12-31T17:33:12.930Z,99298.00
2022-12-31T17:35:42.318Z,99279.78
2022-12-31T17:38:21.140Z,99292.13
2022-12-31T17:41:05.403Z,99289.06
2022-12-31T17:43:37.132Z,99288.31
2022-12-31T17:46:09.924Z,99268.25
2022-12-31T17:48:36.740Z,99278.66
2022-12-31T17:51:03.491Z,99261.59
2022-12-31T17:53:30.190Z,99249.59
2022-12-31T17:56:01.498Z,99259.97
2022-12-31T17:58:30.077Z,99259.09
2022-12-31T18:00:58.087Z,99259.94
2022-12-31T18:03:24.954Z,99239.84
2022-12-31T18:05:51.787Z,99257.91
2022-12-31T18:08:21.201Z,99255.97
2022-12-31T18:10:51.506Z,99230.78
2022-12-31T18:13:21.249Z,99240.19
2022-12-31T18:15:48.501Z,99231.59
2022-12-31T18:18:26.699Z,99231.34
2022-12-31T18:21:05.761Z,99227.56
2022-12-31T18:23:39.239Z,99228.94
2022-12-31T18:26:06.297Z,99230.69
2022-12-31T18:28:33.045Z,99242.53
2022-12-31T18:30:59.804Z,99234.16
2022-12-31T18:33:26.968Z,99235.00
2022-12-31T18:36:10.431Z,99221.25
2022-12-31T18:38:37.820Z,99239.13
2022-12-31T18:41:04.654Z,99225.16
2022-12-31T18:43:31.906Z,99235.28
2022-12-31T18:45:58.780Z,99253.97
2022-12-31T18:48:25.562Z,99237.44
2022-12-31T18:50:53.063Z,99225.03
2022-12-31T18:53:21.800Z,99230.44
2022-12-31T18:55:50.873Z,99253.28
2022-12-31T18:58:17.664Z,99232.72
2022-12-31T19:00:45.749Z,99230.59
2022-12-31T19:03:22.087Z,99236.69
2022-12-31T19:05:50.891Z,99235.94
2022-12-31T19:08:22.043Z,99239.25
2022-12-31T19:10:52.395Z,99245.16
2022-12-31T19:13:20.421Z,99257.81
2022-12-31T19:15:51.897Z,99251.59
2022-12-31T19:18:18.873Z,99254.50
2022-12-31T19:20:47.841Z,99279.75
2022-12-31T19:23:20.526Z,99277.69
2022-12-31T19:25:49.178Z,99274.38
2022-12-31T19:28:22.902Z,99271.09
2022-12-31T19:30:53.084Z,99271.31
2022-12-31T19:33:20.333Z,99281.91
2022-12-31T19:35:48.079Z,99287.00
2022-12-31T19:38:25.452Z,99275.88
2022-12-31T19:40:53.516Z,99288.41
2022-12-31T19:43:23.667Z,99278.19
2022-12-31T19:45:51.478Z,99309.47
2022-12-31T19:48:27.202Z,99305.63
2022-12-31T19:50:59.033Z,99306.34
2022-12-31T19:53:27.358Z,99293.03
2022-12-31T19:55:54.069Z,99307.03
2022-12-31T19:58:25.680Z,99305.56
2022-12-31T20:00:57.067Z,99303.41
2022-12-31T20:03:28.238Z,99305.47
2022-12-31T20:06:09.590Z,99292.13
2022-12-31T20:08:38.098Z,99322.50
2022-12-31T20:11:18.938Z,99327.56
2022-12-31T20:13:49.467Z,99326.53
2022-12-31T20:16:18.634Z,99323.28
2022-12-31T20:18:46.802Z,99321.19
2022-12-31T20:21:24.696Z,99338.81
2022-12-31T20:23:53.145Z,99337.31
2022-12-31T20:26:22.869Z,99352.69
2022-12-31T20:28:50.924Z,99352.34
2022-12-31T20:31:20.050Z,99361.06
2022-12-31T20:33:47.141Z,99348.09
2022-12-31T20:36:15.496Z,99347.72
2022-12-31T20:38:44.730Z,99363.13
2022-12-31T20:41:21.849Z,99360.50
2022-12-31T20:43:48.900Z,99363.97
2022-12-31T20:46:21.298Z,99361.00
2022-12-31T20:48:49.334Z,99361.94
2022-12-31T20:51:17.257Z,99381.75
2022-12-31T20:53:52.223Z,99372.56
2022-12-31T20:56:19.277Z,99367.75
2022-12-31T20:58:46.128Z,99382.69
2022-12-31T21:01:17.247Z,99391.03
2022-12-31T21:06:32.895Z,99375.78
2022-12-31T21:09:01.025Z,99391.47
2022-12-31T21:11:49.910Z,99377.22
2022-12-31T21:14:16.739Z,99371.34
2022-12-31T21:16:43.495Z,99388.63
2022-12-31T21:19:10.396Z,99407.75
2022-12-31T21:21:45.477Z,99392.31
2022-12-31T21:24:12.223Z,99407.56
2022-12-31T21:26:38.974Z,99407.25
2022-12-31T21:29:05.709Z,99391.22
2022-12-31T21:31:32.630Z,99389.78
2022-12-31T21:33:59.445Z,99400.97
2022-12-31T21:36:26.188Z,99400.09
2022-12-31T21:38:52.854Z,99399.63
2022-12-31T21:41:38.272Z,99404.06
2022-12-31T21:44:05.096Z,99418.84
2022-12-31T21:46:31.889Z,99416.66
2022-12-31T21:48:59.650Z,99434.31
2022-12-31T21:51:27.751Z,99432.69
2022-12-31T21:53:54.665Z,99435.06
2022-12-31T21:56:21.810Z,99420.78
2022-12-31T21:59:13.824Z,99438.13
2022-12-31T22:02:02.303Z,99422.13
2022-12-31T22:05:17.547Z,99426.59
2022-12-31T22:07:16.438Z,99434.34
2022-12-31T22:09:43.138Z,99446.44
2022-12-31T22:12:09.953Z,99435.28
2022-12-31T22:14:36.767Z,99445.94
2022-12-31T22:17:03.512Z,99461.34
2022-12-31T22:19:30.192Z,99464.44
2022-12-31T22:21:56.927Z,99467.09
2022-12-31T22:24:23.721Z,99480.06
2022-12-31T22:26:51.075Z,99450.75
2022-12-31T22:29:19.296Z,99451.81
2022-12-31T22:31:46.052Z,99454.66
2022-12-31T22:34:15.636Z,99481.72
2022-12-31T22:36:42.363Z,99476.63
2022-12-31T22:39:43.401Z,99485.94
2022-12-31T22:42:11.087Z,99483.41
2022-12-31T22:44:37.843Z,99466.41
2022-12-31T22:47:04.636Z,99476.13
2022-12-31T22:49:31.440Z,99494.69
2022-12-31T22:52:02.987Z,99487.47
2022-12-31T22:54:34.004Z,99480.53
2022-12-31T22:57:01.473Z,99489.19
2022-12-31T22:59:30.548Z,99485.50
2022-12-31T23:01:57.351Z,99488.19
2022-12-31T23:04:24.174Z,99502.97
2022-12-31T23:06:50.943Z,99495.31
2022-12-31T23:09:36.341Z,99482.28
2022-12-31T23:12:04.745Z,99486.16
2022-12-31T23:14:50.283Z,99494.88
2022-12-31T23:17:38.849Z,99493.81
2022-12-31T23:20:27.145Z,99488.41
2022-12-31T23:23:05.872Z,99487.75
2022-12-31T23:25:33.669Z,99487.91
2022-12-31T23:28:00.497Z,99479.84
2022-12-31T23:30:27.387Z,99487.44
2022-12-31T23:32:55.639Z,99484.50
2022-12-31T23:35:25.200Z,99492.38
2022-12-31T23:37:52.052Z,99485.03
2022-12-31T23:40:21.431Z,99502.66
2022-12-31T23:42:50.093Z,99491.88
2022-12-31T23:45:16.886Z,99496.56
2022-12-31T23:47:43.727Z,99509.25
2022-12-31T23:50:10.503Z,99499.81
2022-12-31T23:52:37.177Z,99485.41
2022-12-31T23:55:04.298Z,99502.16
2022-12-31T23:57:30.976Z,99504.41
2022-12-31T23:59:59.831Z,99511.94
